Flight Sim Network - LICA Airport Info

    LICA (Lamezia Terme Airport)  Login to use Map Selector
   

  ALLIANCE AIRCRAFT AT THIS AIRPORT
Tail Number Aircraft ModelFlightsRunwayRangeCapacityPaxSale
N95DFBombardier Challenger 300 04500ft4127nm500Kg9Yes
  RUNWAY INFORMATION    |    Airport Elevation : 39ft    |    LAT : 38.9053993225098  /  LON : 16.2423000335693
Runway Number 10 / 28 Runway Width 148' Runway Length 7920'
Lighted Runway Yes Runway StatusOpen Runway Surface Asphalt
  CLOSE ALTERNATE AIRPORTS
ICAODistanceAirport NameLongest RWRW SurfaceMAP
LIBC39NMCrotone Airport6566FTAsphalt
LICR57NMReggio Calabria Airport6953FTAsphalt
LICC103NMCatania-Fontanarossa Airport8181FTAsphalt
  AIRPORT WEATHER
82°F | 28°C
Temperature
69%
Humidity
29" | 0mb
Pressure
6sm
Visibility
VFR
Flight Rules
FEW @ 2700ft
Initial Clouds
FAIR
Conditions
Wind Info
7/23/24 17:50Z
Updated

LICA 231750Z AUTO 24009KT 9999 FEW027/// 28/22 Q1012
  AIRPORT FREQUENCIES
NameFrequency
GROUND122.100
TOWER119.700
APPROACH118.800
DEPARTURE122.100
LAM (RWY 28)110.300

Powered by Virtual Airlines Manager